createdAt,value
2022-10-14T00:00:17.457Z,16.33
2022-10-14T00:03:07.677Z,18.50
2022-10-14T00:05:41.488Z,18.00
2022-10-14T00:08:14.672Z,17.00
2022-10-14T00:13:14.497Z,18.33
2022-10-14T00:15:44.526Z,17.30
2022-10-14T00:18:14.617Z,16.35
2022-10-14T00:20:44.817Z,17.20
2022-10-14T00:23:16.269Z,17.63
2022-10-14T00:25:46.531Z,17.00
2022-10-14T00:28:16.578Z,18.08
2022-10-14T00:30:56.209Z,18.55
2022-10-14T00:33:26.767Z,18.70
2022-10-14T00:35:59.088Z,16.80
2022-10-14T00:38:35.698Z,18.00
2022-10-14T00:41:06.677Z,17.52
2022-10-14T00:43:56.946Z,18.73
2022-10-14T00:46:28.348Z,17.70
2022-10-14T00:49:09.977Z,17.63
2022-10-14T00:51:42.769Z,16.33
2022-10-14T00:54:18.009Z,17.40
2022-10-14T00:56:49.657Z,17.98
2022-10-14T00:59:20.648Z,18.33
2022-10-14T01:01:51.001Z,16.42
2022-10-14T01:04:21.047Z,17.55
2022-10-14T01:06:59.347Z,17.55
2022-10-14T01:09:35.557Z,16.50
2022-10-14T01:12:33.815Z,18.40
2022-10-14T01:15:18.000Z,20.02
2022-10-14T01:17:58.879Z,17.05
2022-10-14T01:21:08.902Z,17.23
2022-10-14T01:24:27.707Z,17.40
2022-10-14T01:27:19.128Z,18.67
2022-10-14T01:30:05.458Z,17.65
2022-10-14T01:32:44.367Z,17.88
2022-10-14T01:35:25.619Z,18.15
2022-10-14T01:38:00.142Z,19.38
2022-10-14T01:40:36.901Z,19.58
2022-10-14T01:43:08.048Z,19.10
2022-10-14T01:45:42.475Z,19.63
2022-10-14T01:48:18.609Z,19.15
2022-10-14T01:50:51.209Z,20.50
2022-10-14T01:53:25.388Z,18.25
2022-10-14T01:55:58.957Z,18.42
2022-10-14T01:58:33.207Z,18.27
2022-10-14T02:01:07.829Z,18.92
2022-10-14T02:03:46.079Z,18.20
2022-10-14T02:06:23.177Z,17.58
2022-10-14T02:09:13.150Z,19.35
2022-10-14T02:12:00.609Z,19.08
2022-10-14T02:14:40.591Z,19.88
2022-10-14T02:17:18.928Z,18.45
2022-10-14T02:19:57.428Z,20.13
2022-10-14T02:22:34.309Z,18.35
2022-10-14T02:25:14.616Z,17.38
2022-10-14T02:27:46.398Z,18.42
2022-10-14T02:30:18.617Z,18.40
2022-10-14T02:32:55.639Z,18.55
2022-10-14T02:35:26.649Z,18.70
2022-10-14T02:37:59.466Z,17.88
2022-10-14T02:40:34.894Z,18.95
2022-10-14T02:43:04.886Z,18.30
2022-10-14T02:48:08.329Z,16.98
2022-10-14T02:50:41.788Z,19.15
2022-10-14T02:53:15.876Z,18.13
2022-10-14T02:55:48.878Z,18.38
2022-10-14T02:58:18.797Z,19.50
2022-10-14T03:00:51.007Z,17.27
2022-10-14T03:03:23.498Z,16.90
2022-10-14T03:05:53.747Z,17.83
2022-10-14T03:08:24.424Z,19.67
2022-10-14T03:10:54.817Z,18.98
2022-10-14T03:13:25.558Z,18.60
2022-10-14T03:15:55.915Z,20.65
2022-10-14T03:18:28.483Z,18.40
2022-10-14T03:21:05.169Z,17.35
2022-10-14T03:23:40.240Z,17.27
2022-10-14T03:26:14.038Z,17.67
2022-10-14T03:28:48.743Z,18.55
2022-10-14T03:31:38.128Z,19.52
2022-10-14T03:34:41.907Z,18.48
2022-10-14T03:37:18.587Z,17.67
2022-10-14T03:39:53.388Z,17.95
2022-10-14T03:42:24.599Z,18.45
2022-10-14T03:44:55.006Z,18.33
2022-10-14T03:47:29.626Z,19.05
2022-10-14T03:50:01.206Z,18.40
2022-10-14T03:52:37.898Z,19.90
2022-10-14T03:55:17.997Z,18.75
2022-10-14T03:57:50.969Z,17.77
2022-10-14T04:00:21.748Z,18.00
2022-10-14T04:03:02.817Z,17.55
2022-10-14T04:05:41.670Z,17.08
2022-10-14T04:08:16.487Z,17.27
2022-10-14T04:10:58.168Z,16.90
2022-10-14T04:13:31.688Z,18.80
2022-10-14T04:16:07.429Z,17.50
2022-10-14T04:18:42.348Z,17.02
2022-10-14T04:21:15.969Z,17.85
2022-10-14T04:23:52.010Z,18.08
2022-10-14T04:26:31.310Z,16.58
2022-10-14T04:29:02.406Z,18.25
2022-10-14T04:31:38.316Z,17.20
2022-10-14T04:34:08.747Z,16.92
2022-10-14T04:36:43.328Z,18.70
2022-10-14T04:39:43.967Z,16.77
2022-10-14T04:42:15.068Z,18.17
2022-10-14T04:44:48.488Z,18.73
2022-10-14T04:47:20.427Z,20.02
2022-10-14T04:49:56.644Z,19.48
2022-10-14T04:52:28.610Z,20.27
2022-10-14T04:55:10.698Z,19.83
2022-10-14T04:57:45.338Z,21.38
2022-10-14T05:00:18.250Z,20.30
2022-10-14T05:02:54.859Z,18.13
2022-10-14T05:05:31.858Z,18.23
2022-10-14T05:08:06.779Z,19.63
2022-10-14T05:10:41.559Z,19.17
2022-10-14T05:13:18.579Z,18.00
2022-10-14T05:16:04.869Z,19.92
2022-10-14T05:18:35.855Z,21.08
2022-10-14T05:21:11.348Z,19.45
2022-10-14T05:24:01.393Z,20.52
2022-10-14T05:26:35.550Z,18.60
2022-10-14T05:29:12.224Z,21.48
2022-10-14T05:31:43.800Z,20.58
2022-10-14T05:34:37.258Z,19.73
2022-10-14T05:37:11.417Z,19.98
2022-10-14T05:39:54.109Z,21.45
2022-10-14T05:42:28.017Z,22.70
2022-10-14T05:45:00.949Z,21.15
2022-10-14T05:47:33.239Z,23.60
2022-10-14T05:50:12.080Z,22.98
2022-10-14T05:52:46.539Z,23.13
2022-10-14T05:55:27.278Z,22.83
2022-10-14T05:58:01.894Z,21.90
2022-10-14T06:00:37.258Z,23.92
2022-10-14T06:03:13.737Z,21.92
2022-10-14T06:05:44.429Z,22.98
2022-10-14T06:08:14.858Z,21.88
2022-10-14T06:10:46.230Z,24.50
2022-10-14T06:13:16.619Z,24.42
2022-10-14T06:15:50.173Z,23.42
2022-10-14T06:18:20.615Z,22.35
2022-10-14T06:20:54.887Z,23.70
2022-10-14T06:23:25.119Z,25.05
2022-10-14T06:25:56.619Z,23.95
2022-10-14T06:28:27.458Z,27.33
2022-10-14T06:30:58.089Z,26.23
2022-10-14T06:33:31.836Z,26.85
2022-10-14T06:36:04.320Z,24.70
2022-10-14T06:38:35.357Z,27.02
2022-10-14T06:41:07.116Z,28.77
2022-10-14T06:43:38.338Z,29.20
2022-10-14T06:46:08.857Z,29.35
2022-10-14T06:48:39.348Z,30.55
2022-10-14T06:51:09.558Z,32.67
2022-10-14T06:53:40.287Z,34.57
2022-10-14T06:56:13.096Z,30.75
2022-10-14T06:58:43.459Z,29.60
2022-10-14T07:01:14.223Z,28.70
2022-10-14T07:03:45.059Z,28.42
2022-10-14T07:06:17.467Z,28.20
2022-10-14T07:08:48.279Z,35.40
2022-10-14T07:11:19.859Z,29.95
2022-10-14T07:13:50.798Z,27.33
2022-10-14T07:16:23.543Z,25.80
2022-10-14T07:18:54.238Z,26.70
2022-10-14T07:21:24.417Z,26.98
2022-10-14T07:23:55.808Z,24.25
2022-10-14T07:26:28.047Z,26.67
2022-10-14T07:28:59.798Z,27.17
2022-10-14T07:31:30.302Z,24.80
2022-10-14T07:34:01.577Z,26.10
2022-10-14T07:36:32.026Z,24.17
2022-10-14T07:39:02.955Z,25.02
2022-10-14T07:41:35.897Z,23.25
2022-10-14T07:44:09.408Z,25.98
2022-10-14T07:46:43.982Z,22.55
2022-10-14T07:49:21.535Z,24.30
2022-10-14T07:51:52.296Z,25.40
2022-10-14T07:54:25.679Z,25.10
2022-10-14T07:57:00.847Z,23.90
2022-10-14T07:59:33.112Z,24.52
2022-10-14T08:02:03.372Z,23.23
2022-10-14T08:04:34.494Z,23.85
2022-10-14T08:07:05.624Z,23.17
2022-10-14T08:09:37.667Z,23.80
2022-10-14T08:12:09.753Z,23.45
2022-10-14T08:14:42.714Z,23.73
2022-10-14T08:17:13.454Z,24.13
2022-10-14T08:22:15.329Z,24.20
2022-10-14T08:24:47.260Z,23.67
2022-10-14T08:27:19.553Z,24.85
2022-10-14T08:29:49.853Z,25.55
2022-10-14T08:32:20.018Z,25.48
2022-10-14T08:34:50.586Z,24.83
2022-10-14T08:37:20.643Z,23.98
2022-10-14T08:39:53.154Z,22.77
2022-10-14T08:42:37.371Z,24.17
2022-10-14T08:45:16.405Z,25.00
2022-10-14T08:47:49.398Z,24.50
2022-10-14T08:50:29.466Z,25.90
2022-10-14T08:53:06.662Z,26.23
2022-10-14T08:55:46.354Z,26.00
2022-10-14T09:01:06.069Z,23.98
2022-10-14T09:03:39.256Z,25.42
2022-10-14T09:06:17.094Z,25.42
2022-10-14T09:08:51.345Z,25.63
2022-10-14T09:11:28.608Z,26.50
2022-10-14T09:14:06.404Z,24.73
2022-10-14T09:16:41.566Z,23.92
2022-10-14T09:19:21.589Z,25.63
2022-10-14T09:21:56.853Z,24.27
2022-10-14T09:24:30.464Z,24.33
2022-10-14T09:27:06.002Z,25.02
2022-10-14T09:29:44.839Z,25.52
2022-10-14T09:32:24.311Z,24.40
2022-10-14T09:34:55.311Z,25.17
2022-10-14T09:37:31.307Z,25.73
2022-10-14T09:40:06.474Z,26.42
2022-10-14T09:42:46.980Z,23.27
2022-10-14T09:45:22.940Z,26.08
2022-10-14T09:47:57.109Z,25.88
2022-10-14T09:50:33.059Z,24.50
2022-10-14T09:53:10.964Z,24.30
2022-10-14T09:55:50.596Z,23.75
2022-10-14T09:58:28.619Z,25.30
2022-10-14T10:01:02.899Z,24.23
2022-10-14T10:03:35.867Z,24.55
2022-10-14T10:06:09.151Z,23.45
2022-10-14T10:08:42.437Z,24.98
2022-10-14T10:11:15.137Z,25.30
2022-10-14T10:13:49.293Z,26.20
2022-10-14T10:16:31.849Z,26.17
2022-10-14T10:19:28.560Z,25.30
2022-10-14T10:24:50.926Z,26.08
2022-10-14T10:27:36.020Z,25.23
2022-10-14T10:30:24.689Z,26.02
2022-10-14T10:33:11.353Z,25.48
2022-10-14T10:36:02.544Z,24.75
2022-10-14T10:38:36.845Z,25.33
2022-10-14T10:41:26.868Z,26.13
2022-10-14T10:44:09.873Z,26.73
2022-10-14T10:47:01.207Z,26.38
2022-10-14T10:49:53.557Z,24.65
2022-10-14T10:52:37.216Z,26.08
2022-10-14T10:55:18.664Z,24.98
2022-10-14T10:58:04.816Z,24.27
2022-10-14T11:00:48.608Z,23.33
2022-10-14T11:03:39.907Z,23.23
2022-10-14T11:06:44.314Z,25.23
2022-10-14T11:09:42.807Z,25.38
2022-10-14T11:12:23.483Z,25.58
2022-10-14T11:15:26.916Z,25.55
2022-10-14T11:18:05.755Z,26.33
2022-10-14T11:20:52.744Z,27.83
2022-10-14T11:23:49.573Z,27.35
2022-10-14T11:29:21.688Z,28.92
2022-10-14T11:32:06.377Z,26.38
2022-10-14T11:34:45.085Z,25.98
2022-10-14T11:37:29.458Z,28.65
2022-10-14T11:40:10.382Z,29.25
2022-10-14T11:43:02.670Z,28.73
2022-10-14T11:45:54.872Z,30.17
2022-10-14T11:48:55.957Z,28.67
2022-10-14T11:51:35.594Z,27.58
2022-10-14T11:54:15.231Z,26.80
2022-10-14T11:56:53.066Z,27.65
2022-10-14T12:00:02.511Z,28.98
2022-10-14T12:02:49.005Z,27.38
2022-10-14T12:05:25.836Z,25.88
2022-10-14T12:08:12.594Z,27.60
2022-10-14T12:10:50.028Z,25.73
2022-10-14T12:13:37.491Z,28.38
2022-10-14T12:16:20.800Z,25.75
2022-10-14T12:18:56.586Z,26.85
2022-10-14T12:21:37.768Z,26.83
2022-10-14T12:24:14.864Z,26.63
2022-10-14T12:26:52.907Z,24.95
2022-10-14T12:29:32.094Z,25.58
2022-10-14T12:32:21.627Z,24.40
2022-10-14T12:34:58.869Z,27.30
2022-10-14T12:40:32.879Z,26.65
2022-10-14T12:43:26.995Z,27.20
2022-10-14T12:46:12.352Z,26.23
2022-10-14T12:48:51.868Z,27.55
2022-10-14T12:51:24.969Z,26.83
2022-10-14T12:54:13.539Z,26.42
2022-10-14T12:56:55.605Z,26.77
2022-10-14T12:59:30.036Z,25.48
2022-10-14T13:02:07.956Z,25.25
2022-10-14T13:04:38.946Z,26.75
2022-10-14T13:07:40.735Z,27.65
2022-10-14T13:10:48.666Z,26.40
2022-10-14T13:13:52.779Z,25.42
2022-10-14T13:16:58.729Z,24.15
2022-10-14T13:19:45.337Z,24.10
2022-10-14T13:22:40.853Z,24.85
2022-10-14T13:25:23.157Z,24.02
2022-10-14T13:28:27.330Z,25.17
2022-10-14T13:31:08.189Z,24.83
2022-10-14T13:33:49.189Z,24.30
2022-10-14T13:36:34.020Z,23.90
2022-10-14T13:39:06.007Z,23.58
2022-10-14T13:41:40.411Z,22.90
2022-10-14T13:44:14.279Z,22.95
2022-10-14T13:46:47.216Z,22.85
2022-10-14T13:49:22.132Z,24.42
2022-10-14T13:51:58.549Z,26.48
2022-10-14T13:54:31.475Z,25.88
2022-10-14T13:57:38.237Z,25.13
2022-10-14T14:00:39.074Z,23.00
2022-10-14T14:02:48.135Z,32.47
2022-10-14T14:11:16.097Z,26.88
2022-10-14T14:14:01.778Z,23.60
2022-10-14T14:16:36.327Z,22.48
2022-10-14T14:19:20.371Z,18.85
2022-10-14T14:21:51.346Z,17.95
2022-10-14T14:24:27.020Z,18.35
2022-10-14T14:26:59.262Z,18.42
2022-10-14T14:29:33.753Z,18.90
2022-10-14T14:32:07.452Z,17.23
2022-10-14T14:34:41.039Z,17.73
2022-10-14T14:37:43.828Z,16.85
2022-10-14T14:40:19.584Z,15.75
2022-10-14T14:42:53.812Z,20.30
2022-10-14T14:45:27.012Z,19.63
2022-10-14T14:48:00.621Z,21.50
2022-10-14T14:50:34.642Z,26.02
2022-10-14T14:53:12.180Z,25.27
2022-10-14T14:55:49.740Z,23.92
2022-10-14T14:58:29.091Z,23.40
2022-10-14T15:00:59.740Z,23.88
2022-10-14T15:03:34.929Z,22.33
2022-10-14T15:06:07.903Z,23.85
2022-10-14T15:08:39.691Z,24.02
2022-10-14T15:13:53.127Z,23.85
2022-10-14T15:16:42.047Z,24.90
2022-10-14T15:19:34.119Z,23.90
2022-10-14T15:22:31.171Z,23.75
2022-10-14T15:25:05.719Z,23.15
2022-10-14T15:27:51.970Z,22.40
2022-10-14T15:30:28.431Z,22.67
2022-10-14T15:33:20.181Z,22.50
2022-10-14T15:35:58.691Z,22.30
2022-10-14T15:41:09.799Z,24.38
2022-10-14T15:43:41.449Z,21.27
2022-10-14T15:46:33.401Z,23.20
2022-10-14T15:51:38.811Z,21.23
2022-10-14T15:54:14.052Z,22.95
2022-10-14T15:56:47.347Z,23.58
2022-10-14T15:59:19.911Z,22.70
2022-10-14T16:01:51.036Z,22.33
2022-10-14T16:04:24.973Z,24.30
2022-10-14T16:06:57.079Z,21.83
2022-10-14T16:09:29.422Z,25.88
2022-10-14T16:11:59.613Z,23.73
2022-10-14T16:14:31.789Z,25.35
2022-10-14T16:17:03.593Z,25.08
2022-10-14T16:19:34.026Z,26.05
2022-10-14T16:22:08.100Z,27.20
2022-10-14T16:24:41.544Z,30.83
2022-10-14T16:27:11.771Z,31.00
2022-10-14T16:29:43.521Z,33.08
2022-10-14T16:32:15.932Z,37.17
2022-10-14T16:34:47.740Z,35.03
2022-10-14T16:37:18.522Z,33.80
2022-10-14T16:39:48.411Z,34.97
2022-10-14T16:42:20.395Z,36.63
2022-10-14T16:44:53.811Z,39.35
2022-10-14T16:47:26.651Z,36.30
2022-10-14T16:49:59.662Z,38.28
2022-10-14T16:52:54.468Z,46.10
2022-10-14T16:55:29.371Z,51.83
2022-10-14T16:58:04.494Z,45.60
2022-10-14T17:00:40.138Z,45.33
2022-10-14T17:03:17.726Z,43.65
2022-10-14T17:05:59.242Z,44.90
2022-10-14T17:08:32.065Z,42.83
2022-10-14T17:11:06.252Z,43.25
2022-10-14T17:13:40.676Z,42.92
2022-10-14T17:16:14.200Z,46.83
2022-10-14T17:18:46.181Z,48.40
2022-10-14T17:21:19.820Z,44.80
2022-10-14T17:23:50.971Z,41.88
2022-10-14T17:26:21.580Z,40.50
2022-10-14T17:28:51.936Z,40.83
2022-10-14T17:31:28.066Z,39.03
2022-10-14T17:34:00.232Z,43.78
2022-10-14T17:36:32.211Z,45.22
2022-10-14T17:39:03.070Z,42.95
2022-10-14T17:41:33.372Z,43.75
2022-10-14T17:44:04.412Z,40.80
2022-10-14T17:46:36.232Z,43.85
2022-10-14T17:49:10.301Z,51.60
2022-10-14T17:51:40.982Z,48.15
2022-10-14T17:54:13.587Z,47.97
2022-10-14T17:56:43.710Z,52.15
2022-10-14T17:59:14.579Z,52.42
2022-10-14T18:02:03.429Z,52.47
2022-10-14T18:04:34.460Z,53.13
2022-10-14T18:07:04.579Z,51.25
2022-10-14T18:09:35.412Z,46.60
2022-10-14T18:12:10.111Z,41.85
2022-10-14T18:14:42.211Z,43.20
2022-10-14T18:17:14.143Z,42.03
2022-10-14T18:19:51.875Z,41.92
2022-10-14T18:22:23.952Z,33.72
2022-10-14T18:24:54.622Z,32.10
2022-10-14T18:27:25.666Z,32.70
2022-10-14T18:29:56.192Z,35.25
2022-10-14T18:32:27.772Z,38.35
2022-10-14T18:34:57.922Z,37.47
2022-10-14T18:37:27.987Z,36.95
2022-10-14T18:39:58.047Z,43.60
2022-10-14T18:42:28.472Z,42.25
2022-10-14T18:44:59.480Z,39.38
2022-10-14T18:47:31.751Z,43.63
2022-10-14T18:52:36.891Z,57.83
2022-10-14T18:55:07.652Z,52.80
2022-10-14T18:57:38.713Z,50.45
2022-10-14T19:00:13.558Z,52.58
2022-10-14T19:02:46.103Z,49.67
2022-10-14T19:07:47.811Z,42.92
2022-10-14T19:10:17.951Z,45.20
2022-10-14T19:12:48.181Z,44.38
2022-10-14T19:15:18.832Z,44.38
2022-10-14T19:17:54.517Z,41.35
2022-10-14T19:20:24.792Z,37.92
2022-10-14T19:22:56.651Z,40.20
2022-10-14T19:25:27.012Z,41.35
2022-10-14T19:27:57.451Z,42.95
2022-10-14T19:30:29.426Z,42.58
2022-10-14T19:33:01.910Z,41.47
2022-10-14T19:35:31.872Z,43.42
2022-10-14T19:38:02.201Z,47.58
2022-10-14T19:40:32.153Z,49.13
2022-10-14T19:43:02.220Z,48.55
2022-10-14T19:45:32.806Z,48.88
2022-10-14T19:48:06.284Z,49.00
2022-10-14T19:50:36.915Z,51.05
2022-10-14T19:53:07.317Z,47.72
2022-10-14T19:55:38.505Z,46.67
2022-10-14T19:58:08.661Z,46.58
2022-10-14T20:00:40.058Z,47.45
2022-10-14T20:03:13.246Z,42.17
2022-10-14T20:05:44.769Z,44.50
2022-10-14T20:10:50.202Z,44.65
2022-10-14T20:13:20.465Z,44.42
2022-10-14T20:15:56.565Z,45.85
2022-10-14T20:18:31.087Z,46.17
2022-10-14T20:21:04.043Z,50.47
2022-10-14T20:23:36.646Z,46.05
2022-10-14T20:26:09.062Z,48.60
2022-10-14T20:28:39.858Z,45.50
2022-10-14T20:31:12.613Z,49.08
2022-10-14T20:33:44.638Z,44.47
2022-10-14T20:36:16.994Z,45.17
2022-10-14T20:38:50.021Z,45.65
2022-10-14T20:41:23.333Z,45.03
2022-10-14T20:43:54.394Z,44.15
2022-10-14T20:46:25.405Z,41.83
2022-10-14T20:49:00.486Z,49.75
2022-10-14T20:51:31.621Z,51.45
2022-10-14T20:54:05.086Z,54.88
2022-10-14T20:56:37.837Z,49.22
2022-10-14T20:59:09.754Z,53.78
2022-10-14T21:01:43.705Z,51.85
2022-10-14T21:04:16.702Z,53.58
2022-10-14T21:06:49.202Z,54.05
2022-10-14T21:11:49.373Z,50.47
2022-10-14T21:14:19.614Z,50.90
2022-10-14T21:16:49.701Z,58.08
2022-10-14T21:19:22.413Z,53.45
2022-10-14T21:21:52.413Z,52.83
2022-10-14T21:24:24.102Z,55.63
2022-10-14T21:26:55.467Z,53.00
2022-10-14T21:31:57.492Z,48.55
2022-10-14T21:34:30.374Z,49.95
2022-10-14T21:37:00.732Z,52.22
2022-10-14T21:39:31.124Z,52.10
2022-10-14T21:42:01.292Z,51.63
2022-10-14T21:44:31.370Z,51.20
2022-10-14T21:47:01.904Z,52.70
2022-10-14T21:49:33.422Z,53.08
2022-10-14T21:52:03.824Z,53.85
2022-10-14T21:54:33.854Z,52.08
2022-10-14T21:57:04.354Z,48.70
2022-10-14T21:59:35.304Z,46.67
2022-10-14T22:02:05.573Z,44.00
2022-10-14T22:04:42.412Z,42.95
2022-10-14T22:07:13.914Z,47.85
2022-10-14T22:09:43.854Z,45.95
2022-10-14T22:12:15.060Z,43.92
2022-10-14T22:14:45.021Z,43.25
2022-10-14T22:17:15.215Z,45.35
2022-10-14T22:19:46.722Z,42.17
2022-10-14T22:22:17.174Z,43.85
2022-10-14T22:24:47.254Z,43.38
2022-10-14T22:27:17.241Z,43.28
2022-10-14T22:29:47.543Z,39.55
2022-10-14T22:32:18.265Z,43.58
2022-10-14T22:34:51.304Z,37.47
2022-10-14T22:37:21.741Z,40.65
2022-10-14T22:39:52.205Z,39.40
2022-10-14T22:42:22.182Z,38.92
2022-10-14T22:44:52.324Z,39.70
2022-10-14T22:47:23.029Z,39.55
2022-10-14T22:49:54.642Z,39.10
2022-10-14T22:52:25.237Z,40.40
2022-10-14T22:54:55.524Z,39.47
2022-10-14T22:57:25.562Z,37.75
2022-10-14T22:59:56.012Z,39.00
2022-10-14T23:02:26.445Z,37.88
2022-10-14T23:04:59.066Z,38.22
2022-10-14T23:07:30.294Z,36.03
2022-10-14T23:10:00.652Z,34.67
2022-10-14T23:12:30.812Z,34.05
2022-10-14T23:15:01.031Z,34.65
2022-10-14T23:17:32.361Z,34.30
2022-10-14T23:22:36.333Z,38.83
2022-10-14T23:25:07.361Z,36.88
2022-10-14T23:27:37.349Z,35.65
2022-10-14T23:30:09.402Z,34.97
2022-10-14T23:35:11.445Z,36.58
2022-10-14T23:37:41.407Z,37.58
2022-10-14T23:40:12.884Z,35.88
2022-10-14T23:42:43.104Z,38.90
2022-10-14T23:45:13.592Z,35.85
2022-10-14T23:47:43.583Z,36.70
2022-10-14T23:50:14.982Z,34.03
2022-10-14T23:52:46.182Z,37.30
2022-10-14T23:55:16.456Z,36.08
2022-10-14T23:57:46.863Z,36.97
